createdAt,value
2023-08-29T00:02:42.744Z,4.80
2023-08-29T00:05:45.332Z,4.68
2023-08-29T00:08:47.744Z,3.67
2023-08-29T00:11:50.582Z,3.58
2023-08-29T00:14:53.060Z,4.43
2023-08-29T00:17:55.514Z,3.60
2023-08-29T00:20:57.949Z,3.92
2023-08-29T00:24:00.341Z,2.78
2023-08-29T00:27:02.747Z,3.42
2023-08-29T00:30:05.856Z,4.30
2023-08-29T00:33:10.646Z,5.00
2023-08-29T00:36:14.991Z,4.00
2023-08-29T00:39:17.578Z,4.97
2023-08-29T00:42:20.020Z,4.97
2023-08-29T00:45:23.534Z,4.67
2023-08-29T00:48:26.647Z,5.13
2023-08-29T00:51:30.989Z,5.25
2023-08-29T00:54:33.985Z,5.05
2023-08-29T00:57:36.534Z,4.82
2023-08-29T01:00:40.072Z,5.50
2023-08-29T01:03:42.690Z,3.97
2023-08-29T01:06:45.137Z,3.95
2023-08-29T01:09:47.654Z,4.47
2023-08-29T01:13:00.286Z,4.25
2023-08-29T01:16:06.668Z,4.73
2023-08-29T01:19:14.897Z,4.70
2023-08-29T01:22:45.474Z,3.97
2023-08-29T01:26:23.688Z,3.17
2023-08-29T01:29:27.224Z,4.82
2023-08-29T01:32:29.927Z,4.13
2023-08-29T01:35:32.722Z,4.10
2023-08-29T01:38:35.262Z,3.80
2023-08-29T01:41:37.670Z,3.17
2023-08-29T01:44:40.178Z,4.45
2023-08-29T01:47:44.187Z,4.93
2023-08-29T01:50:47.073Z,4.17
2023-08-29T01:53:49.593Z,3.80
2023-08-29T01:56:54.091Z,4.38
2023-08-29T01:59:58.501Z,4.57
2023-08-29T02:03:01.245Z,4.97
2023-08-29T02:06:04.297Z,4.53
2023-08-29T02:09:06.717Z,3.97
2023-08-29T02:12:11.697Z,4.30
2023-08-29T02:15:14.088Z,4.63
2023-08-29T02:18:16.566Z,4.63
2023-08-29T02:21:18.984Z,4.27
2023-08-29T02:24:21.374Z,4.38
2023-08-29T02:27:23.770Z,4.45
2023-08-29T02:30:28.710Z,4.75
2023-08-29T02:33:31.785Z,4.70
2023-08-29T02:36:34.232Z,3.93
2023-08-29T02:39:36.828Z,4.40
2023-08-29T02:42:39.942Z,4.38
2023-08-29T02:45:42.346Z,5.03
2023-08-29T02:48:45.548Z,5.67
2023-08-29T02:51:48.045Z,4.40
2023-08-29T02:54:50.454Z,5.00
2023-08-29T02:57:52.887Z,4.78
2023-08-29T03:00:58.867Z,5.10
2023-08-29T03:04:01.474Z,4.70
2023-08-29T03:07:05.470Z,5.70
2023-08-29T03:10:08.941Z,5.28
2023-08-29T03:13:11.345Z,5.07
2023-08-29T03:16:17.396Z,4.53
2023-08-29T03:19:21.457Z,4.40
2023-08-29T03:22:23.891Z,4.70
2023-08-29T03:25:26.659Z,4.63
2023-08-29T03:28:29.163Z,4.97
2023-08-29T03:31:31.730Z,4.20
2023-08-29T03:34:36.425Z,4.17
2023-08-29T03:37:40.723Z,4.53
2023-08-29T03:40:43.380Z,4.55
2023-08-29T03:43:45.850Z,4.47
2023-08-29T03:46:48.234Z,4.20
2023-08-29T03:49:50.862Z,4.10
2023-08-29T03:52:53.299Z,4.10
2023-08-29T03:55:55.737Z,5.15
2023-08-29T03:58:58.189Z,4.07
2023-08-29T04:02:01.587Z,4.43
2023-08-29T04:05:15.842Z,4.93
2023-08-29T04:08:18.745Z,4.27
2023-08-29T04:11:21.228Z,4.55
2023-08-29T04:14:23.835Z,4.38
2023-08-29T04:17:26.243Z,5.03
2023-08-29T04:20:29.952Z,4.67
2023-08-29T04:23:32.354Z,4.83
2023-08-29T04:26:36.012Z,4.20
2023-08-29T04:29:38.577Z,4.55
2023-08-29T04:32:41.125Z,4.18
2023-08-29T04:35:43.705Z,4.13
2023-08-29T04:38:48.579Z,4.17
2023-08-29T04:41:51.647Z,4.78
2023-08-29T04:44:55.212Z,4.72
2023-08-29T04:47:57.746Z,4.47
2023-08-29T04:51:00.170Z,5.43
2023-08-29T04:54:02.544Z,5.03
2023-08-29T04:57:07.956Z,5.03
2023-08-29T05:00:14.007Z,5.40
2023-08-29T05:03:18.676Z,5.35
2023-08-29T05:06:21.275Z,6.13
2023-08-29T05:09:25.268Z,4.87
2023-08-29T05:12:27.659Z,5.55
2023-08-29T05:15:30.156Z,5.05
2023-08-29T05:18:32.598Z,5.88
2023-08-29T05:21:35.780Z,6.20
2023-08-29T05:24:38.409Z,5.47
2023-08-29T05:27:40.825Z,5.72
2023-08-29T05:30:44.132Z,5.57
2023-08-29T05:33:46.618Z,5.95
2023-08-29T05:36:50.471Z,7.33
2023-08-29T05:39:53.816Z,7.63
2023-08-29T05:42:56.266Z,6.38
2023-08-29T05:45:58.895Z,6.45
2023-08-29T05:49:01.384Z,7.20
2023-08-29T05:52:04.152Z,6.40
2023-08-29T05:55:07.050Z,6.27
2023-08-29T05:58:09.752Z,5.82
2023-08-29T06:01:12.499Z,5.68
2023-08-29T06:04:15.078Z,5.97
2023-08-29T06:07:17.464Z,6.73
2023-08-29T06:10:20.103Z,5.73
2023-08-29T06:13:22.512Z,5.80
2023-08-29T06:16:24.925Z,6.25
2023-08-29T06:19:27.337Z,6.40
2023-08-29T06:22:30.396Z,6.47
2023-08-29T06:25:32.799Z,5.80
2023-08-29T06:28:35.384Z,6.80
2023-08-29T06:31:37.824Z,6.03
2023-08-29T06:34:41.066Z,5.07
2023-08-29T06:37:43.461Z,5.47
2023-08-29T06:40:45.829Z,5.37
2023-08-29T06:43:48.357Z,5.70
2023-08-29T06:46:50.816Z,5.18
2023-08-29T06:49:56.812Z,5.53
2023-08-29T06:52:59.486Z,5.77
2023-08-29T06:56:02.064Z,5.33
2023-08-29T06:59:04.600Z,5.32
2023-08-29T07:02:07.554Z,5.18
2023-08-29T07:05:11.076Z,4.38
2023-08-29T07:08:13.981Z,4.03
2023-08-29T07:11:16.401Z,5.07
2023-08-29T07:14:18.799Z,3.80
2023-08-29T07:17:21.274Z,3.25
2023-08-29T07:20:23.782Z,3.80
2023-08-29T07:23:27.064Z,4.47
2023-08-29T07:26:29.539Z,4.07
2023-08-29T07:29:32.085Z,3.90
2023-08-29T07:32:34.602Z,3.20
2023-08-29T07:35:37.015Z,3.80
2023-08-29T07:38:39.531Z,3.50
2023-08-29T07:41:41.931Z,3.17
2023-08-29T07:44:44.824Z,3.15
2023-08-29T07:47:50.467Z,4.32
2023-08-29T07:50:53.256Z,3.13
2023-08-29T07:53:55.817Z,3.60
2023-08-29T07:56:58.298Z,3.37
2023-08-29T08:00:01.090Z,3.85
2023-08-29T08:03:04.335Z,3.38
2023-08-29T08:06:07.597Z,3.10
2023-08-29T08:09:10.040Z,3.80
2023-08-29T08:12:12.500Z,3.67
2023-08-29T08:15:15.813Z,2.80
2023-08-29T08:18:18.295Z,2.72
2023-08-29T08:21:22.225Z,2.92
2023-08-29T08:24:24.768Z,3.33
2023-08-29T08:27:27.332Z,3.37
2023-08-29T08:30:30.187Z,2.53
2023-08-29T08:33:32.654Z,3.10
2023-08-29T08:36:35.137Z,2.67
2023-08-29T08:39:37.669Z,3.10
2023-08-29T08:42:45.370Z,2.50
2023-08-29T08:45:48.558Z,2.58
2023-08-29T08:48:51.429Z,2.47
2023-08-29T08:51:55.250Z,3.00
2023-08-29T08:54:57.665Z,2.40
2023-08-29T08:58:01.312Z,2.40
2023-08-29T09:01:04.412Z,3.30
2023-08-29T09:04:06.992Z,2.97
2023-08-29T09:07:09.461Z,2.95
2023-08-29T09:10:13.828Z,2.60
2023-08-29T09:13:19.364Z,3.03
2023-08-29T09:16:22.894Z,3.25
2023-08-29T09:19:26.494Z,2.60
2023-08-29T09:22:28.955Z,3.08
2023-08-29T09:25:31.350Z,3.27
2023-08-29T09:28:34.232Z,3.47
2023-08-29T09:31:36.671Z,2.92
2023-08-29T09:34:39.246Z,3.00
2023-08-29T09:37:43.572Z,3.40
2023-08-29T09:40:50.632Z,3.33
2023-08-29T09:43:53.154Z,2.80
2023-08-29T09:46:55.884Z,4.07
2023-08-29T09:49:58.320Z,3.45
2023-08-29T09:53:01.578Z,4.50
2023-08-29T09:56:12.062Z,3.57
2023-08-29T09:59:18.597Z,3.60
2023-08-29T10:02:22.741Z,3.88
2023-08-29T10:05:29.287Z,3.88
2023-08-29T10:08:40.152Z,3.20
2023-08-29T10:11:54.181Z,3.60
2023-08-29T10:14:58.723Z,3.20
2023-08-29T10:18:01.468Z,3.53
2023-08-29T10:21:05.676Z,2.28
2023-08-29T10:24:08.836Z,3.33
2023-08-29T10:27:11.574Z,3.50
2023-08-29T10:30:15.725Z,3.63
2023-08-29T10:33:19.631Z,3.30
2023-08-29T10:36:25.247Z,2.90
2023-08-29T10:39:28.497Z,3.03
2023-08-29T10:42:49.572Z,3.00
2023-08-29T10:45:54.768Z,2.97
2023-08-29T10:48:59.551Z,2.75
2023-08-29T10:52:11.613Z,2.83
2023-08-29T10:55:25.883Z,2.38
2023-08-29T10:58:35.057Z,3.10
2023-08-29T11:01:40.632Z,3.33
2023-08-29T11:04:55.914Z,2.67
2023-08-29T11:08:24.370Z,3.17
2023-08-29T11:11:26.806Z,3.40
2023-08-29T11:14:49.683Z,2.90
2023-08-29T11:18:20.956Z,3.60
2023-08-29T11:21:24.058Z,3.72
2023-08-29T11:24:26.468Z,3.70
2023-08-29T11:27:30.432Z,3.03
2023-08-29T11:30:42.604Z,3.50
2023-08-29T11:33:50.384Z,3.30
2023-08-29T11:36:52.967Z,2.95
2023-08-29T11:39:57.147Z,3.25
2023-08-29T11:43:05.710Z,3.50
2023-08-29T11:46:13.803Z,3.37
2023-08-29T11:49:17.475Z,3.17
2023-08-29T11:52:20.154Z,3.50
2023-08-29T11:55:25.159Z,3.30
2023-08-29T11:58:29.079Z,4.00
2023-08-29T12:01:37.636Z,3.47
2023-08-29T12:04:41.300Z,3.70
2023-08-29T12:07:45.386Z,3.55
2023-08-29T12:10:52.485Z,3.60
2023-08-29T12:14:02.379Z,3.53
2023-08-29T12:17:05.653Z,3.50
2023-08-29T12:20:14.623Z,3.63
2023-08-29T12:23:27.584Z,3.63
2023-08-29T12:26:30.022Z,3.13
2023-08-29T12:29:32.963Z,3.58
2023-08-29T12:32:35.701Z,2.90
2023-08-29T12:35:40.074Z,2.90
2023-08-29T12:38:42.561Z,3.22
2023-08-29T12:41:45.007Z,2.95
2023-08-29T12:44:47.430Z,3.05
2023-08-29T12:47:51.960Z,3.03
2023-08-29T12:50:54.568Z,3.13
2023-08-29T12:53:56.997Z,3.47
2023-08-29T12:56:59.426Z,3.53
2023-08-29T13:00:02.201Z,3.25
2023-08-29T13:03:04.985Z,3.90
2023-08-29T13:06:08.956Z,4.43
2023-08-29T13:09:15.312Z,3.80
2023-08-29T13:12:26.058Z,3.92
2023-08-29T13:15:41.036Z,3.38
2023-08-29T13:18:51.289Z,3.47
2023-08-29T13:21:53.714Z,3.97
2023-08-29T13:24:56.107Z,3.58
2023-08-29T13:27:58.965Z,3.15
2023-08-29T13:31:02.307Z,3.40
2023-08-29T13:34:04.732Z,3.40
2023-08-29T13:37:07.257Z,3.60
2023-08-29T13:40:09.930Z,3.63
2023-08-29T13:43:12.373Z,3.30
2023-08-29T13:46:14.883Z,3.50
2023-08-29T13:49:17.356Z,3.13
2023-08-29T13:52:22.777Z,3.63
2023-08-29T13:55:25.760Z,5.68
2023-08-29T13:58:28.561Z,4.00
2023-08-29T14:01:31.361Z,3.63
2023-08-29T14:04:33.775Z,3.23
2023-08-29T14:07:36.231Z,3.30
2023-08-29T14:10:38.642Z,3.88
2023-08-29T14:13:41.124Z,3.40
2023-08-29T14:16:43.801Z,3.13
2023-08-29T14:19:46.378Z,3.50
2023-08-29T14:22:48.846Z,3.33
2023-08-29T14:25:51.328Z,2.75
2023-08-29T14:28:53.768Z,3.22
2023-08-29T14:31:56.183Z,3.42
2023-08-29T14:34:58.565Z,3.30
2023-08-29T14:38:00.995Z,3.67
2023-08-29T14:41:13.773Z,3.08
2023-08-29T14:44:16.130Z,3.10
2023-08-29T14:47:18.532Z,3.20
2023-08-29T14:50:21.535Z,3.10
2023-08-29T14:53:26.131Z,2.67
2023-08-29T14:56:28.519Z,3.15
2023-08-29T14:59:30.913Z,2.85
2023-08-29T15:02:33.546Z,3.58
2023-08-29T15:05:36.037Z,2.93
2023-08-29T15:08:38.850Z,2.50
2023-08-29T15:11:41.809Z,2.97
2023-08-29T15:14:44.221Z,2.90
2023-08-29T15:17:46.777Z,2.83
2023-08-29T15:20:50.007Z,3.00
2023-08-29T15:23:52.485Z,2.90
2023-08-29T15:41:59.799Z,3.37
2023-08-29T15:45:02.773Z,3.25
2023-08-29T15:48:07.399Z,3.38
2023-08-29T15:51:10.159Z,3.80
2023-08-29T15:54:12.565Z,3.58
2023-08-29T15:57:15.243Z,3.37
2023-08-29T16:00:17.976Z,3.90
2023-08-29T16:03:22.246Z,4.60
2023-08-29T16:06:24.744Z,4.00
2023-08-29T16:09:30.787Z,3.50
2023-08-29T16:12:33.230Z,4.70
2023-08-29T16:15:36.090Z,4.50
2023-08-29T16:18:38.657Z,4.25
2023-08-29T16:21:41.028Z,4.35
2023-08-29T16:24:45.531Z,4.70
2023-08-29T16:27:47.915Z,5.10
2023-08-29T16:30:50.292Z,3.53
2023-08-29T16:33:52.775Z,4.07
2023-08-29T16:36:55.162Z,3.90
2023-08-29T16:39:57.749Z,4.63
2023-08-29T16:43:00.218Z,3.50
2023-08-29T16:46:02.805Z,5.00
2023-08-29T16:49:05.443Z,4.22
2023-08-29T16:52:08.338Z,3.67
2023-08-29T16:55:10.851Z,4.55
2023-08-29T16:58:13.377Z,3.73
2023-08-29T17:01:16.426Z,3.83
2023-08-29T17:04:18.916Z,4.60
2023-08-29T17:07:21.468Z,5.95
2023-08-29T17:10:23.907Z,4.22
2023-08-29T17:13:26.326Z,4.87
2023-08-29T17:16:28.788Z,3.88
2023-08-29T17:19:31.258Z,4.38
2023-08-29T17:22:34.786Z,4.60
2023-08-29T17:25:37.436Z,4.20
2023-08-29T17:28:39.834Z,5.07
2023-08-29T17:31:42.225Z,4.55
2023-08-29T17:34:44.875Z,5.22
2023-08-29T17:37:47.260Z,4.30
2023-08-29T17:40:49.655Z,5.35
2023-08-29T17:43:52.054Z,4.53
2023-08-29T17:46:54.463Z,5.65
2023-08-29T17:49:57.066Z,4.45
2023-08-29T17:52:59.502Z,4.78
2023-08-29T17:56:01.867Z,4.38
2023-08-29T17:59:04.949Z,4.00
2023-08-29T18:02:07.337Z,3.47
2023-08-29T18:05:11.336Z,3.92
2023-08-29T18:08:14.209Z,3.35
2023-08-29T18:11:18.284Z,3.53
2023-08-29T18:14:20.710Z,3.83
2023-08-29T18:17:23.144Z,4.20
2023-08-29T18:20:25.864Z,3.80
2023-08-29T18:23:28.837Z,3.85
2023-08-29T18:26:32.242Z,4.53
2023-08-29T18:29:34.622Z,4.10
2023-08-29T18:32:37.232Z,4.20
2023-08-29T18:35:41.236Z,4.15
2023-08-29T18:38:43.642Z,4.05
2023-08-29T18:41:46.161Z,4.20
2023-08-29T18:44:48.792Z,4.03
2023-08-29T18:47:51.470Z,4.45
2023-08-29T18:50:53.873Z,4.18
2023-08-29T18:53:56.432Z,5.30
2023-08-29T18:56:58.784Z,3.95
2023-08-29T19:00:01.463Z,4.90
2023-08-29T19:03:04.663Z,4.55
2023-08-29T19:06:13.967Z,4.68
2023-08-29T19:09:17.848Z,5.38
2023-08-29T19:12:20.520Z,5.43
2023-08-29T19:15:23.509Z,4.73
2023-08-29T19:18:26.077Z,3.83
2023-08-29T19:21:28.456Z,4.60
2023-08-29T19:24:30.857Z,4.45
2023-08-29T19:27:33.562Z,4.50
2023-08-29T19:30:36.206Z,3.90
2023-08-29T19:33:38.910Z,4.65
2023-08-29T19:36:41.890Z,4.43
2023-08-29T19:39:44.303Z,5.75
2023-08-29T19:42:46.915Z,5.10
2023-08-29T19:45:49.276Z,4.27
2023-08-29T19:48:52.306Z,4.28
2023-08-29T19:51:56.818Z,4.30
2023-08-29T19:55:00.609Z,4.82
2023-08-29T19:58:03.914Z,4.82
2023-08-29T20:01:07.392Z,4.97
2023-08-29T20:04:10.373Z,4.85
2023-08-29T20:07:12.999Z,5.45
2023-08-29T20:10:15.397Z,5.97
2023-08-29T20:13:17.802Z,5.28
2023-08-29T20:16:20.498Z,5.23
2023-08-29T20:19:25.220Z,4.72
2023-08-29T20:22:28.023Z,4.78
2023-08-29T20:25:30.599Z,4.65
2023-08-29T20:28:32.968Z,5.10
2023-08-29T20:31:35.607Z,4.73
2023-08-29T20:34:39.109Z,4.28
2023-08-29T20:37:43.981Z,4.68
2023-08-29T20:40:49.085Z,4.47
2023-08-29T20:43:51.701Z,4.10
2023-08-29T20:46:54.071Z,4.57
2023-08-29T20:49:56.490Z,4.03
2023-08-29T20:52:58.890Z,3.67
2023-08-29T20:56:01.305Z,3.78
2023-08-29T20:59:03.756Z,4.63
2023-08-29T21:02:06.849Z,4.17
2023-08-29T21:05:10.080Z,3.33
2023-08-29T21:08:12.718Z,4.05
2023-08-29T21:11:15.136Z,4.63
2023-08-29T21:14:17.535Z,3.22
2023-08-29T21:17:22.231Z,3.13
2023-08-29T21:20:24.751Z,2.85
2023-08-29T21:23:27.874Z,2.70
2023-08-29T21:26:30.232Z,3.30
2023-08-29T21:29:32.692Z,3.65
2023-08-29T21:32:35.059Z,3.60
2023-08-29T21:35:39.759Z,3.40
2023-08-29T21:38:44.073Z,3.03
2023-08-29T21:41:46.448Z,2.95
2023-08-29T21:44:52.345Z,2.00
2023-08-29T21:47:54.794Z,2.40
2023-08-29T21:50:58.281Z,2.80
2023-08-29T21:54:00.648Z,2.83
2023-08-29T21:57:03.063Z,3.10
2023-08-29T22:00:08.463Z,3.17
2023-08-29T22:03:14.564Z,3.20
2023-08-29T22:06:17.076Z,3.13
2023-08-29T22:09:19.434Z,3.05
2023-08-29T22:12:22.335Z,3.17
2023-08-29T22:15:24.858Z,3.85
2023-08-29T22:18:27.225Z,3.10
2023-08-29T22:21:29.594Z,2.90
2023-08-29T22:24:31.952Z,3.20
2023-08-29T22:27:34.435Z,3.22
2023-08-29T22:30:39.651Z,3.10
2023-08-29T22:33:42.764Z,3.50
2023-08-29T22:36:45.292Z,2.90
2023-08-29T22:39:50.985Z,2.75
2023-08-29T22:42:53.947Z,3.63
2023-08-29T22:45:56.429Z,3.08
2023-08-29T22:48:59.013Z,3.00
2023-08-29T22:52:01.730Z,3.90
2023-08-29T22:55:05.857Z,3.25
2023-08-29T22:58:08.431Z,4.07
2023-08-29T23:01:11.104Z,3.00
2023-08-29T23:04:13.573Z,3.77
2023-08-29T23:07:15.932Z,3.55
2023-08-29T23:10:18.843Z,3.35
2023-08-29T23:13:21.316Z,4.53
2023-08-29T23:16:23.730Z,3.38
2023-08-29T23:19:26.707Z,3.57
2023-08-29T23:22:29.085Z,3.88
2023-08-29T23:25:31.508Z,4.05
2023-08-29T23:28:36.717Z,4.03
2023-08-29T23:31:41.237Z,4.38
2023-08-29T23:34:43.700Z,4.33
2023-08-29T23:37:46.808Z,4.57
2023-08-29T23:40:49.471Z,4.40
2023-08-29T23:43:51.864Z,3.20
2023-08-29T23:46:55.688Z,3.80
2023-08-29T23:49:58.170Z,3.40
2023-08-29T23:53:00.642Z,3.90
2023-08-29T23:56:03.906Z,3.65
2023-08-29T23:59:06.605Z,5.75
